Time;durP1;ratioP1;P1;durP2;ratioP2;P2;SDS_P1;SDS_P2;PMS_P1;PMS_P2;Temp;Humidity;BMP_temperature;BMP_pressure;BME280_temperature;BME280_humidity;BME280_pressure;Samples;Min_cycle;Max_cycle;Signal;HPM_P1;HPM_P2
2021/09/13 00:00:33;;;;;;;;;7.75;7.75;;;;;19.39;55.86;101475.44;4899627;29;45138;-58
2021/09/13 00:02:59;;;;;;;;;8.75;6.25;;;;;19.38;56.10;101480.94;4897382;29;45672;-58
2021/09/13 00:05:25;;;;;;;;;6.75;6.50;;;;;19.38;56.28;101478.25;4898222;29;45461;-58
2021/09/13 00:07:50;;;;;;;;;7.00;5.50;;;;;19.36;56.13;101480.22;4897579;29;45380;-58
2021/09/13 00:10:16;;;;;;;;;8.50;7.75;;;;;19.34;55.59;101483.00;4901947;29;45424;-57
2021/09/13 00:12:41;;;;;;;;;8.50;7.25;;;;;19.34;55.71;101477.66;4899354;29;45303;-55
2021/09/13 00:15:09;;;;;;;;;9.50;8.50;;;;;19.37;55.94;101480.09;4899490;29;45360;-55
2021/09/13 00:17:35;;;;;;;;;8.00;6.75;;;;;19.40;56.02;101481.66;4899970;29;45443;-58
2021/09/13 00:20:01;;;;;;;;;8.00;6.50;;;;;19.43;55.63;101479.56;4900381;29;45578;-58
2021/09/13 00:22:26;;;;;;;;;7.50;7.25;;;;;19.47;55.49;101477.47;4897038;29;45472;-56
2021/09/13 00:24:52;;;;;;;;;8.00;8.00;;;;;19.48;55.43;101473.81;4898916;29;45551;-56
2021/09/13 00:27:18;;;;;;;;;11.25;9.00;;;;;19.51;55.46;101468.19;4898130;29;45368;-57
2021/09/13 00:29:43;;;;;;;;;9.75;9.00;;;;;19.52;55.10;101465.44;4884033;29;45493;-55
2021/09/13 00:32:09;;;;;;;;;21.25;17.75;;;;;19.55;55.56;101452.78;4900705;29;46180;-54
2021/09/13 00:34:35;;;;;;;;;44.25;32.25;;;;;19.54;54.97;101454.59;4901468;29;45353;-55
2021/09/13 00:37:03;;;;;;;;;62.75;48.50;;;;;19.54;55.41;101454.59;4896880;29;45415;-54
2021/09/13 00:39:28;;;;;;;;;62.75;48.75;;;;;19.53;55.08;101451.09;4898327;29;45632;-55
2021/09/13 00:41:54;;;;;;;;;73.50;54.00;;;;;19.51;55.21;101446.81;4897068;29;45274;-53
2021/09/13 00:44:20;;;;;;;;;63.75;50.25;;;;;19.50;55.05;101447.81;4897353;29;45180;-57
2021/09/13 00:46:45;;;;;;;;;58.25;44.75;;;;;19.47;55.28;101446.25;4897578;29;45650;-54
2021/09/13 00:49:11;;;;;;;;;52.00;41.00;;;;;19.45;55.39;101442.03;4898779;29;45292;-58
2021/09/13 00:51:36;;;;;;;;;47.25;37.75;;;;;19.46;54.98;101449.91;4898488;29;45597;-55
2021/09/13 00:54:02;;;;;;;;;40.00;32.75;;;;;19.46;54.97;101441.88;4900281;29;45377;-55
2021/09/13 00:56:28;;;;;;;;;32.75;29.75;;;;;19.45;55.45;101442.03;4901005;29;45587;-56
2021/09/13 00:58:54;;;;;;;;;20.25;20.25;;;;;19.44;55.49;101435.00;4899199;29;45246;-55
2021/09/13 01:01:19;;;;;;;;;17.00;15.25;;;;;19.40;55.24;101436.22;4896982;29;46202;-55
2021/09/13 01:03:45;;;;;;;;;18.00;16.50;;;;;19.36;55.27;101435.66;4896963;29;45304;-53
2021/09/13 01:06:11;;;;;;;;;14.75;12.00;;;;;19.34;55.19;101436.72;4897206;29;45437;-56
2021/09/13 01:08:36;;;;;;;;;16.50;13.75;;;;;19.35;55.52;101441.94;4899532;29;45783;-55
2021/09/13 01:11:02;;;;;;;;;15.00;13.00;;;;;19.35;55.45;101438.44;4899303;29;45531;-56
2021/09/13 01:13:28;;;;;;;;;12.50;11.00;;;;;19.33;55.20;101445.72;4896753;29;45392;-57
2021/09/13 01:15:53;;;;;;;;;9.75;7.25;;;;;19.31;55.21;101453.88;4899560;29;45583;-55
2021/09/13 01:18:19;;;;;;;;;7.50;6.25;;;;;19.28;55.46;101440.81;4897196;29;45474;-58
2021/09/13 01:20:45;;;;;;;;;4.75;3.00;;;;;19.26;55.40;101448.06;4896822;28;45423;-56
2021/09/13 01:23:26;;;;;;;;;5.50;5.00;;;;;19.21;55.13;101451.16;4896042;29;45425;-55
2021/09/13 01:25:52;;;;;;;;;8.50;7.00;;;;;19.21;55.04;101452.97;4897993;29;45342;-56
2021/09/13 01:28:18;;;;;;;;;7.00;7.00;;;;;19.19;55.42;101450.41;4901047;29;45384;-56
2021/09/13 01:30:44;;;;;;;;;9.00;8.50;;;;;19.16;55.64;101450.69;4895869;29;46264;-57
2021/09/13 01:33:10;;;;;;;;;11.00;8.75;;;;;19.17;55.55;101451.53;4897299;29;45550;-56
2021/09/13 01:35:35;;;;;;;;;5.00;5.00;;;;;19.16;55.19;101444.50;4896826;29;45401;-57
2021/09/13 01:38:01;;;;;;;;;10.00;8.25;;;;;19.14;55.64;101433.09;4896188;29;45552;-57
2021/09/13 01:40:27;;;;;;;;;9.75;9.00;;;;;19.16;55.42;101433.81;4896556;29;45439;-57
2021/09/13 01:42:57;;;;;;;;;7.50;7.50;;;;;19.17;55.96;101435.50;4897293;29;45450;-56
2021/09/13 01:45:23;;;;;;;;;9.00;9.00;;;;;19.15;56.08;101430.28;4900751;29;45363;-57
2021/09/13 01:47:48;;;;;;;;;11.00;9.00;;;;;19.13;55.67;101434.06;4905226;29;45292;-56
2021/09/13 01:50:14;;;;;;;;;8.75;6.75;;;;;19.08;56.08;101431.78;4904798;29;45968;-54
2021/09/13 01:52:40;;;;;;;;;10.75;9.25;;;;;19.06;56.02;101431.06;4903670;29;45276;-55
2021/09/13 01:55:06;;;;;;;;;11.00;10.00;;;;;19.05;56.52;101433.88;4904917;29;45515;-54
2021/09/13 01:57:31;;;;;;;;;7.25;7.25;;;;;19.02;56.31;101444.78;4887925;29;45425;-54
2021/09/13 01:59:57;;;;;;;;;9.00;8.00;;;;;18.98;56.98;101432.69;4904438;29;45387;-55
2021/09/13 06:13:24;;;;;;;;;18.75;14.25;;;;;17.97;62.47;101387.56;4947529;23;46637;-48
2021/09/13 06:15:49;;;;;;;;;19.50;19.00;;;;;17.99;62.28;101393.63;4897058;29;48339;-51
2021/09/13 06:18:15;;;;;;;;;15.75;11.75;;;;;18.00;62.28;101396.16;4898926;29;45503;-52
2021/09/13 06:20:40;;;;;;;;;16.75;15.50;;;;;18.08;62.30;101392.88;4894866;29;45407;-52
2021/09/13 06:23:06;;;;;;;;;14.50;13.25;;;;;18.16;62.09;101389.59;4889562;29;45242;-48
2021/09/13 06:25:31;;;;;;;;;16.50;16.50;;;;;18.24;62.10;101389.81;4884392;29;46568;-53
2021/09/13 06:27:57;;;;;;;;;34.00;23.50;;;;;18.25;61.97;101394.22;4880279;29;45310;-49
2021/09/13 06:30:22;;;;;;;;;19.00;16.75;;;;;18.25;62.16;101394.22;4877579;29;45325;-55
2021/09/13 06:32:48;;;;;;;;;20.50;19.50;;;;;18.26;61.92;101390.56;4886271;29;45329;-58
2021/09/13 06:35:13;;;;;;;;;18.25;18.25;;;;;18.29;62.15;101398.31;4879109;29;45341;-53
2021/09/13 06:37:39;;;;;;;;;16.75;14.75;;;;;18.33;61.76;101397.94;4882515;29;45394;-50
2021/09/13 06:40:05;;;;;;;;;16.00;15.00;;;;;18.36;61.87;101403.03;4879398;29;45603;-48
2021/09/13 06:42:31;;;;;;;;;18.75;17.25;;;;;18.37;61.94;101402.03;4883053;29;45573;-48
2021/09/13 06:44:58;;;;;;;;;20.25;18.25;;;;;18.41;61.70;101400.84;4880397;29;45463;-51
2021/09/13 06:49:55;;;;;;;;;20.25;17.25;;;;;18.41;61.79;101403.50;4884398;29;45378;-51
2021/09/13 06:52:21;;;;;;;;;18.00;16.50;;;;;18.46;61.95;101412.94;4884723;29;45563;-47
2021/09/13 06:54:47;;;;;;;;;20.50;17.50;;;;;18.50;61.61;101409.91;4877560;29;45440;-49
2021/09/13 06:57:12;;;;;;;;;15.25;14.25;;;;;18.53;61.98;101414.97;4880228;29;45442;-50
2021/09/13 06:59:40;;;;;;;;;24.00;22.00;;;;;18.55;62.02;101414.84;4878647;29;45307;-52
2021/09/13 07:02:07;;;;;;;;;26.75;25.00;;;;;18.61;61.61;101417.00;4881942;29;45604;-51
2021/09/13 07:04:33;;;;;;;;;16.25;15.25;;;;;18.66;61.70;101413.03;4881602;29;45413;-51
2021/09/13 07:06:58;;;;;;;;;38.00;33.75;;;;;18.71;61.82;101417.13;4881702;29;45556;-51
2021/09/13 07:09:24;;;;;;;;;21.00;17.25;;;;;18.76;61.34;101412.28;4881430;29;45260;-53
2021/09/13 07:11:49;;;;;;;;;20.75;18.00;;;;;18.77;61.59;101409.47;4881966;29;45467;-52
2021/09/13 07:14:15;;;;;;;;;22.00;19.00;;;;;18.80;62.08;101397.69;4880742;29;45293;-52
2021/09/13 07:16:40;;;;;;;;;22.50;15.00;;;;;18.77;61.90;101405.94;4882929;29;45310;-52
2021/09/13 07:19:06;;;;;;;;;19.50;17.50;;;;;18.73;61.89;101402.72;4876572;29;45606;-49
2021/09/13 07:21:33;;;;;;;;;18.75;18.75;;;;;18.71;61.65;101393.94;4880951;29;45387;-55
2021/09/13 07:23:58;;;;;;;;;18.00;16.75;;;;;18.73;61.85;101402.72;4880678;29;45471;-52
2021/09/13 07:26:24;;;;;;;;;19.50;18.25;;;;;18.75;61.55;101406.09;4881485;29;45843;-52
2021/09/13 07:28:50;;;;;;;;;17.50;15.25;;;;;18.78;61.72;101400.47;4881127;29;45565;-51
2021/09/13 07:31:16;;;;;;;;;21.00;20.00;;;;;18.81;61.86;101397.56;4880259;29;45457;-51
2021/09/13 07:33:41;;;;;;;;;23.50;19.50;;;;;18.85;61.78;101392.81;4876797;29;45443;-54
2021/09/13 07:36:07;;;;;;;;;21.00;18.25;;;;;18.93;61.31;101390.34;4882678;29;45365;-53
2021/09/13 07:38:32;;;;;;;;;25.75;20.50;;;;;19.00;61.29;101386.19;4881641;29;45368;-53
2021/09/13 07:40:58;;;;;;;;;26.50;22.25;;;;;19.07;61.33;101392.69;4884508;29;45405;-49
2021/09/13 07:43:23;;;;;;;;;25.50;18.00;;;;;19.10;61.45;101387.09;4886905;29;45552;-52
2021/09/13 07:45:49;;;;;;;;;21.00;19.25;;;;;19.17;60.97;101390.94;4883029;29;45276;-50
2021/09/13 07:48:17;;;;;;;;;18.00;17.00;;;;;19.23;61.22;101390.41;4880466;29;45297;-52
2021/09/13 07:50:44;;;;;;;;;18.25;18.25;;;;;19.32;60.62;101390.63;4888462;29;45388;-52
2021/09/13 07:53:10;;;;;;;;;19.25;17.50;;;;;19.38;60.69;101390.09;4884343;29;46061;-51
2021/09/13 07:55:35;;;;;;;;;18.00;16.00;;;;;19.45;60.67;101394.78;4884330;29;45400;-51
2021/09/13 07:58:01;;;;;;;;;17.75;15.50;;;;;19.49;60.39;101387.31;4885127;29;45338;-50
2021/09/13 08:00:26;;;;;;;;;22.75;18.25;;;;;19.55;60.39;101380.63;4882676;29;45312;-52
2021/09/13 08:02:52;;;;;;;;;14.00;14.00;;;;;19.61;60.07;101372.94;4880686;29;46079;-48
2021/09/13 08:05:17;;;;;;;;;19.50;17.25;;;;;19.66;60.43;101378.72;4883311;29;45303;-52
2021/09/13 08:07:43;;;;;;;;;19.00;16.50;;;;;19.70;60.42;101368.63;4884514;29;45339;-50
2021/09/13 08:10:10;;;;;;;;;17.00;15.75;;;;;19.77;59.80;101369.78;4887185;29;45542;-50
2021/09/13 08:12:35;;;;;;;;;18.00;17.00;;;;;19.81;59.66;101363.16;4879344;29;45926;-51
2021/09/13 08:15:01;;;;;;;;;15.00;12.00;;;;;19.87;59.63;101365.31;4881719;29;45238;-50
2021/09/13 08:17:26;;;;;;;;;19.50;16.75;;;;;19.93;59.74;101364.75;4887802;29;45503;-49
2021/09/13 08:19:52;;;;;;;;;18.00;14.75;;;;;20.00;60.11;101365.91;4884341;29;45494;-52
2021/09/13 08:22:17;;;;;;;;;18.75;14.25;;;;;20.09;60.18;101364.25;4881060;29;46260;-53
2021/09/13 08:24:43;;;;;;;;;17.50;13.25;;;;;20.15;59.96;101368.22;4879615;29;45448;-54
2021/09/13 08:27:08;;;;;;;;;16.25;15.75;;;;;20.24;59.70;101375.41;4881397;29;45407;-54
2021/09/13 08:29:34;;;;;;;;;16.50;14.50;;;;;20.33;59.37;101369.22;4880137;29;45478;-53
2021/09/13 08:32:00;;;;;;;;;14.50;11.75;;;;;20.41;58.87;101373.88;4865524;29;47700;-54
2021/09/13 08:34:26;;;;;;;;;21.25;14.50;;;;;20.49;59.14;101368.69;4882043;29;45510;-51
2021/09/13 08:36:52;;;;;;;;;30.75;24.25;;;;;20.59;58.76;101359.69;4886060;29;45482;-53
2021/09/13 08:39:18;;;;;;;;;15.00;14.00;;;;;20.72;59.03;101366.59;4883883;29;45512;-45
2021/09/13 08:41:45;;;;;;;;;14.00;13.75;;;;;20.82;58.74;101362.91;4880968;29;45982;-45
2021/09/13 08:44:14;;;;;;;;;14.75;12.00;;;;;20.86;58.99;101367.03;4880305;29;45371;-45
2021/09/13 08:46:51;;;;;;;;;21.00;14.75;;;;;20.88;58.62;101362.34;4882987;29;45372;-43
2021/09/13 08:49:31;;;;;;;;;14.00;14.00;;;;;20.94;57.75;101357.44;4882852;29;45499;-47
2021/09/13 08:51:57;;;;;;;;;14.00;14.00;;;;;20.94;58.15;101360.94;4886229;29;45336;-45
2021/09/13 08:54:27;;;;;;;;;19.00;13.00;;;;;21.00;57.84;101365.72;4882125;29;45629;-45
2021/09/13 08:56:59;;;;;;;;;15.50;12.50;;;;;21.01;57.87;101371.91;4882789;29;45528;-46
2021/09/13 08:59:26;;;;;;;;;15.50;11.75;;;;;21.01;57.40;101370.06;4881373;29;45376;-45
2021/09/13 09:01:52;;;;;;;;;12.00;12.00;;;;;20.99;57.43;101368.53;4883260;29;46232;-45
2021/09/13 09:04:19;;;;;;;;;12.75;11.25;;;;;21.05;57.42;101373.34;4884004;29;45380;-44
2021/09/13 09:06:46;;;;;;;;;9.50;9.00;;;;;21.13;57.42;101368.94;4880717;29;45315;-44
2021/09/13 09:09:18;;;;;;;;;14.75;11.75;;;;;21.23;57.56;101378.78;4881210;29;45255;-46
2021/09/13 09:12:00;;;;;;;;;13.25;11.25;;;;;21.35;56.80;101380.34;4882645;29;45392;-43
2021/09/13 09:14:34;;;;;;;;;10.25;10.25;;;;;21.40;56.50;101381.59;4879258;29;45499;-49
2021/09/13 09:17:21;;;;;;;;;6.50;6.50;;;;;21.44;56.16;101377.66;4883880;29;45245;-43
2021/09/13 09:19:46;;;;;;;;;10.00;9.25;;;;;21.49;56.52;101374.53;4882724;29;45368;-42
2021/09/13 09:22:28;;;;;;;;;9.25;9.00;;;;;21.55;55.97;101386.50;4884540;29;45476;-45
2021/09/13 09:24:56;;;;;;;;;9.00;8.50;;;;;21.58;55.71;101381.69;4885925;29;45348;-46
2021/09/13 09:27:23;;;;;;;;;11.00;8.75;;;;;21.67;55.83;101380.81;4881925;29;45328;-50
2021/09/13 09:29:49;;;;;;;;;7.25;7.25;;;;;21.76;55.76;101373.72;4887204;29;45280;-47
2021/09/13 09:32:23;;;;;;;;;10.50;8.25;;;;;21.80;55.16;101375.09;4882398;29;45354;-49
2021/09/13 09:34:50;;;;;;;;;8.75;8.75;;;;;21.84;55.97;101376.50;4883045;29;45276;-51
2021/09/13 09:37:17;;;;;;;;;10.00;8.50;;;;;21.93;55.43;101367.56;4886098;29;45252;-46
2021/09/13 09:39:48;;;;;;;;;8.75;7.75;;;;;21.98;54.47;101367.97;4881686;29;45473;-51
2021/09/13 09:42:31;;;;;;;;;8.50;8.50;;;;;22.02;54.54;101372.03;4881239;29;45634;-47
2021/09/13 09:44:58;;;;;;;;;9.75;8.50;;;;;22.08;54.54;101369.78;4881653;29;45380;-48
2021/09/13 09:47:24;;;;;;;;;7.00;7.00;;;;;22.16;54.14;101368.03;4883253;29;45304;-46
2021/09/13 09:49:54;;;;;;;;;8.00;6.00;;;;;22.25;54.22;101363.59;4881517;29;45501;-46
2021/09/13 09:52:31;;;;;;;;;7.75;6.00;;;;;22.33;53.77;101361.00;4880142;29;45773;-48
2021/09/13 09:55:16;;;;;;;;;7.25;5.00;;;;;22.43;53.63;101359.06;4890099;29;45337;-44
2021/09/13 09:57:45;;;;;;;;;8.75;7.75;;;;;22.51;53.02;101356.50;4904578;29;45320;-51
2021/09/13 10:00:21;;;;;;;;;8.75;7.00;;;;;22.49;52.54;101346.88;4904625;29;45257;-49
2021/09/13 10:02:47;;;;;;;;;7.00;5.00;;;;;22.52;52.72;101342.06;4884160;29;46577;-52
2021/09/13 10:05:12;;;;;;;;;6.25;6.00;;;;;22.57;52.83;101331.69;4882861;29;45332;-48
2021/09/13 10:07:41;;;;;;;;;8.75;7.00;;;;;22.66;52.71;101323.69;4880940;29;45445;-47
2021/09/13 10:10:07;;;;;;;;;7.00;7.00;;;;;22.77;52.71;101318.94;4878912;29;45394;-44
2021/09/13 10:12:34;;;;;;;;;7.25;6.25;;;;;22.86;52.75;101314.50;4880600;29;46230;-44
2021/09/13 10:15:02;;;;;;;;;7.50;6.25;;;;;22.91;52.59;101312.19;4879604;29;45408;-47
2021/09/13 10:17:28;;;;;;;;;8.00;6.00;;;;;22.94;51.56;101306.50;4885274;29;45361;-48
2021/09/13 10:19:54;;;;;;;;;6.00;5.75;;;;;22.98;51.62;101309.69;4882521;29;45654;-46
2021/09/13 10:22:19;;;;;;;;;6.50;6.50;;;;;23.04;51.99;101303.69;4880612;29;45415;-50
2021/09/13 10:24:47;;;;;;;;;6.25;6.25;;;;;23.06;51.39;101302.53;4878595;29;45708;-48
2021/09/13 10:27:15;;;;;;;;;6.00;6.00;;;;;23.16;51.88;101306.97;4881754;29;45275;-48
2021/09/13 10:29:42;;;;;;;;;6.50;5.50;;;;;23.21;51.28;101301.94;4881604;29;45466;-49
2021/09/13 10:32:07;;;;;;;;;6.00;6.00;;;;;23.26;52.32;101297.78;4878077;29;46383;-49
2021/09/13 10:34:46;;;;;;;;;5.50;4.25;;;;;23.33;51.33;101300.69;4877737;29;45506;-48
2021/09/13 10:37:16;;;;;;;;;6.25;6.25;;;;;23.35;50.88;101298.66;4885432;29;45405;-45
2021/09/13 10:39:58;;;;;;;;;7.75;4.75;;;;;23.41;50.56;101295.34;4879120;29;45365;-48
2021/09/13 10:42:50;;;;;;;;;9.75;8.50;;;;;23.46;50.43;101295.72;4879139;29;46064;-47
2021/09/13 10:45:27;;;;;;;;;6.75;6.50;;;;;23.51;49.78;101297.91;4878994;29;45594;-46
2021/09/13 10:47:59;;;;;;;;;7.50;6.00;;;;;23.55;50.57;101293.91;4879542;29;45660;-48
2021/09/13 10:50:41;;;;;;;;;9.25;7.50;;;;;23.63;50.23;101286.75;4884114;29;45414;-46
2021/09/13 10:53:18;;;;;;;;;7.75;7.00;;;;;23.74;49.94;101284.75;4883291;29;45923;-46
2021/09/13 10:55:49;;;;;;;;;7.00;7.00;;;;;23.80;49.70;101282.25;4876343;29;45232;-47
2021/09/13 10:58:37;;;;;;;;;6.50;4.50;;;;;23.85;50.48;101279.06;4879612;29;45490;-45
2021/09/13 11:01:06;;;;;;;;;6.50;5.00;;;;;23.94;50.35;101281.63;4880234;29;45459;-48
2021/09/13 11:03:36;;;;;;;;;5.50;5.50;;;;;24.03;49.44;101279.78;4879100;29;46159;-50
2021/09/13 11:06:12;;;;;;;;;3.75;3.50;;;;;24.10;49.01;101271.91;4880572;29;45246;-48
2021/09/13 11:08:39;;;;;;;;;6.50;5.00;;;;;24.14;49.57;101267.84;4882882;29;45791;-47
2021/09/13 11:11:11;;;;;;;;;5.25;5.25;;;;;24.17;49.44;101265.69;4882170;29;45468;-46
2021/09/13 11:13:37;;;;;;;;;4.75;4.75;;;;;24.19;49.49;101269.03;4887805;29;46395;-49
2021/09/13 11:16:03;;;;;;;;;7.00;6.00;;;;;24.22;49.61;101263.31;4884547;29;45268;-47
2021/09/13 11:18:36;;;;;;;;;8.50;6.00;;;;;24.22;49.61;101265.16;4889124;29;45492;-46
2021/09/13 11:21:21;;;;;;;;;8.25;7.50;;;;;24.29;49.24;101262.66;4885411;29;45311;-47
2021/09/13 11:23:51;;;;;;;;;6.00;5.00;;;;;24.35;48.70;101264.72;4881082;29;46426;-46
2021/09/13 11:26:19;;;;;;;;;6.00;6.00;;;;;24.36;48.63;101256.47;4880447;29;45443;-46
2021/09/13 11:29:05;;;;;;;;;6.75;5.25;;;;;24.40;49.01;101249.72;4882297;29;45262;-49
2021/09/13 11:31:43;;;;;;;;;6.25;5.25;;;;;24.45;48.75;101247.38;4886983;29;45314;-48
2021/09/13 11:34:15;;;;;;;;;4.75;4.25;;;;;24.49;48.37;101239.81;4883765;29;45300;-48
2021/09/13 11:36:58;;;;;;;;;6.00;5.50;;;;;24.51;48.68;101240.47;4885301;29;45495;-48
2021/09/13 11:39:35;;;;;;;;;4.50;4.50;;;;;24.53;47.83;101245.69;4886700;29;45323;-49
2021/09/13 11:42:16;;;;;;;;;7.00;4.50;;;;;24.54;48.12;101240.13;4883330;29;45250;-48
2021/09/13 11:44:46;;;;;;;;;4.00;4.00;;;;;24.59;47.43;101251.25;4881617;29;46431;-48
2021/09/13 11:47:16;;;;;;;;;5.75;4.75;;;;;24.64;47.98;101251.53;4884742;29;45313;-50
2021/09/13 11:49:44;;;;;;;;;6.25;4.75;;;;;24.67;47.73;101251.22;4885876;29;45354;-50
2021/09/13 11:52:19;;;;;;;;;4.00;4.00;;;;;24.72;47.36;101251.53;4880978;29;45398;-48
2021/09/13 11:54:50;;;;;;;;;4.25;4.00;;;;;24.76;47.30;101241.28;4886780;29;46036;-51
2021/09/13 11:57:22;;;;;;;;;5.00;5.00;;;;;24.79;47.50;101239.06;4881295;29;45390;-48
2021/09/13 11:59:53;;;;;;;;;5.25;4.00;;;;;24.86;47.60;101231.13;4887003;29;45672;-48
2021/09/13 12:02:18;;;;;;;;;5.75;3.75;;;;;24.91;47.24;101220.69;4887988;29;45454;-48
2021/09/13 12:04:44;;;;;;;;;4.75;4.00;;;;;24.96;47.49;101226.41;4883044;29;45377;-47
2021/09/13 12:07:12;;;;;;;;;6.00;5.00;;;;;24.99;47.22;101222.53;4881083;29;45361;-47
2021/09/13 12:09:41;;;;;;;;;5.00;5.00;;;;;25.01;47.06;101223.19;4884034;29;45551;-48
2021/09/13 12:12:07;;;;;;;;;5.50;5.50;;;;;25.04;47.06;101234.50;4882353;29;45411;-46
2021/09/13 12:14:37;;;;;;;;;6.75;6.00;;;;;25.11;47.45;101223.84;4886146;29;46271;-47
2021/09/13 12:17:05;;;;;;;;;19.25;17.75;;;;;25.19;47.39;101221.13;4887413;29;45630;-50
2021/09/13 12:19:30;;;;;;;;;7.00;6.50;;;;;25.20;46.97;101212.03;4887907;29;45345;-52
2021/09/13 12:22:00;;;;;;;;;7.00;6.50;;;;;25.19;47.49;101206.81;4883058;29;45575;-48
2021/09/13 12:24:26;;;;;;;;;9.00;5.00;;;;;25.16;47.75;101212.56;4880761;29;45324;-47
2021/09/13 12:26:51;;;;;;;;;5.00;5.00;;;;;25.11;47.09;101212.22;4880506;29;45338;-47
2021/09/13 12:29:17;;;;;;;;;5.00;5.00;;;;;25.09;47.01;101212.41;4882411;29;45250;-46
2021/09/13 12:31:43;;;;;;;;;5.00;5.00;;;;;25.08;47.34;101202.63;4881255;29;45315;-45
2021/09/13 12:34:08;;;;;;;;;6.25;6.25;;;;;25.10;47.86;101208.69;4884271;29;45335;-48
2021/09/13 12:36:34;;;;;;;;;7.75;6.25;;;;;25.18;47.40;101195.19;4881780;29;45252;-47
2021/09/13 12:39:06;;;;;;;;;4.75;4.75;;;;;25.28;46.66;101198.53;4885919;29;45293;-45
2021/09/13 12:41:32;;;;;;;;;5.00;5.00;;;;;25.40;46.75;101185.47;4878744;29;45531;-45
2021/09/13 12:43:59;;;;;;;;;7.75;5.00;;;;;25.48;46.64;101185.44;4885111;29;45528;-47
2021/09/13 12:46:25;;;;;;;;;5.75;5.25;;;;;25.55;46.73;101186.41;4883579;29;45399;-46
2021/09/13 12:48:59;;;;;;;;;5.00;5.00;;;;;25.59;46.59;101182.34;4879561;29;45708;-52
2021/09/13 12:51:24;;;;;;;;;5.50;4.25;;;;;25.61;46.30;101176.75;4886107;29;45436;-47
2021/09/13 12:54:00;;;;;;;;;6.75;4.00;;;;;25.63;46.25;101172.03;4883884;29;45487;-49
2021/09/13 12:56:28;;;;;;;;;8.50;5.00;;;;;25.65;46.32;101169.97;4885877;29;45375;-50
2021/09/13 12:59:17;;;;;;;;;4.00;4.00;;;;;25.68;46.22;101171.50;4880698;29;45787;-51
2021/09/13 13:01:42;;;;;;;;;6.00;4.25;;;;;25.67;45.52;101154.44;4882739;29;45531;-49
2021/09/13 13:04:13;;;;;;;;;4.25;3.00;;;;;25.69;45.87;101154.28;4879012;29;45911;-49
2021/09/13 13:06:40;;;;;;;;;6.00;5.00;;;;;25.70;46.06;101153.25;4884799;29;45403;-50
2021/09/13 13:09:08;;;;;;;;;4.75;4.75;;;;;25.72;45.81;101162.03;4880833;29;45353;-45
2021/09/13 13:11:35;;;;;;;;;6.00;5.00;;;;;25.73;46.16;101156.47;4883369;29;45248;-47
2021/09/13 13:14:02;;;;;;;;;5.00;3.50;;;;;25.77;45.65;101152.41;4880579;29;46369;-46
2021/09/13 13:16:33;;;;;;;;;5.25;4.50;;;;;25.82;45.92;101141.03;4882366;29;45437;-44
2021/09/13 13:18:59;;;;;;;;;6.00;3.00;;;;;25.87;45.60;101142.19;4888044;29;45145;-49
2021/09/13 13:21:24;;;;;;;;;8.00;4.00;;;;;25.93;45.84;101132.53;4883399;29;45393;-49
2021/09/13 13:23:50;;;;;;;;;5.00;4.50;;;;;25.95;45.44;101140.44;4881266;29;45324;-49
2021/09/13 13:26:15;;;;;;;;;6.00;5.00;;;;;25.99;46.11;101122.84;4879042;29;45283;-47
2021/09/13 13:28:42;;;;;;;;;4.50;4.50;;;;;26.04;45.76;101126.69;4889976;29;45375;-44
2021/09/13 13:31:08;;;;;;;;;6.00;5.50;;;;;26.07;45.52;101125.50;4889358;29;45387;-50
2021/09/13 13:33:33;;;;;;;;;4.00;4.00;;;;;26.07;44.73;101120.94;4885099;29;45410;-47
2021/09/13 13:35:59;;;;;;;;;4.75;4.75;;;;;26.08;45.33;101125.31;4861635;29;45439;-47
2021/09/13 13:38:24;;;;;;;;;4.00;4.00;;;;;26.06;45.37;101121.94;4880870;29;45424;-50
2021/09/13 13:40:50;;;;;;;;;5.00;4.00;;;;;26.05;45.27;101114.03;4880603;29;45388;-48
2021/09/13 13:43:16;;;;;;;;;6.00;6.00;;;;;26.08;44.89;101117.22;4881783;29;45615;-48
2021/09/13 13:45:41;;;;;;;;;5.00;5.00;;;;;26.11;45.07;101121.41;4883130;29;45256;-52
2021/09/13 13:48:07;;;;;;;;;6.50;6.00;;;;;26.15;45.04;101120.03;4881290;29;45445;-50
2021/09/13 13:50:32;;;;;;;;;7.50;4.50;;;;;26.20;44.72;101120.28;4879584;29;45235;-52
2021/09/13 13:52:58;;;;;;;;;4.50;4.50;;;;;26.21;44.57;101119.28;4880970;29;45310;-50
2021/09/13 13:55:23;;;;;;;;;7.25;5.00;;;;;26.23;45.22;101113.69;4882819;29;45274;-52
2021/09/13 13:57:49;;;;;;;;;5.50;5.00;;;;;26.30;45.30;101103.81;4880629;29;45298;-51
2021/09/13 14:00:15;;;;;;;;;6.00;5.00;;;;;26.28;44.79;101103.16;4878475;29;46382;-49
2021/09/13 14:02:41;;;;;;;;;6.00;5.00;;;;;26.23;44.70;101100.16;4880399;29;45558;-52
2021/09/13 14:05:08;;;;;;;;;7.25;5.00;;;;;26.23;44.77;101102.88;4880811;29;45426;-50
2021/09/13 14:07:34;;;;;;;;;5.00;4.50;;;;;26.25;44.34;101092.75;4881680;29;45801;-49
2021/09/13 14:10:01;;;;;;;;;4.75;4.75;;;;;26.23;44.50;101105.56;4882158;29;45778;-46
2021/09/13 14:12:27;;;;;;;;;4.00;4.00;;;;;26.16;44.73;101102.78;4879419;29;45435;-48
2021/09/13 14:14:53;;;;;;;;;5.00;4.00;;;;;26.13;44.87;101101.28;4878817;29;45383;-46
2021/09/13 14:17:19;;;;;;;;;6.00;5.25;;;;;26.09;44.95;101099.16;4886653;29;45197;-49
2021/09/13 14:19:45;;;;;;;;;4.25;4.25;;;;;26.09;45.35;101088.34;4885682;29;45428;-48
2021/09/13 14:22:11;;;;;;;;;8.00;6.50;;;;;26.07;45.37;101102.03;4881766;29;46125;-49
2021/09/13 14:24:38;;;;;;;;;5.00;5.00;;;;;26.08;45.23;101097.47;4878321;29;45443;-45
2021/09/13 14:27:04;;;;;;;;;5.50;5.00;;;;;26.13;45.82;101092.34;4881143;29;45310;-49
2021/09/13 14:29:29;;;;;;;;;6.25;4.75;;;;;26.21;45.68;101086.03;4881918;29;45368;-52
2021/09/13 14:31:55;;;;;;;;;4.75;4.75;;;;;26.28;45.58;101078.88;4880244;29;45422;-48
2021/09/13 14:34:21;;;;;;;;;6.00;6.00;;;;;26.34;45.37;101087.06;4878017;29;45295;-45
2021/09/13 14:36:46;;;;;;;;;6.00;5.00;;;;;26.35;45.35;101077.09;4879621;29;45327;-48
2021/09/13 14:39:12;;;;;;;;;5.00;5.00;;;;;26.37;45.49;101078.59;4879173;29;45443;-47
2021/09/13 14:41:38;;;;;;;;;5.50;5.50;;;;;26.38;45.52;101080.28;4863628;29;45213;-50
2021/09/13 14:44:05;;;;;;;;;7.75;5.25;;;;;26.44;45.67;101068.75;4881354;29;45333;-47
2021/09/13 14:46:31;;;;;;;;;3.75;3.75;;;;;26.49;45.13;101076.31;4879507;29;45396;-48
2021/09/13 14:48:57;;;;;;;;;7.75;5.25;;;;;26.46;45.77;101068.56;4877665;29;45597;-47
2021/09/13 14:51:23;;;;;;;;;7.00;6.00;;;;;26.48;45.62;101061.13;4879332;29;46290;-47
2021/09/13 14:53:49;;;;;;;;;5.25;5.25;;;;;26.47;45.99;101070.25;4879442;29;45400;-53
2021/09/13 14:56:14;;;;;;;;;7.00;5.00;;;;;26.43;46.07;101071.63;4880851;29;45452;-50
2021/09/13 14:58:40;;;;;;;;;5.50;4.75;;;;;26.40;45.29;101069.31;4881810;29;45483;-48
2021/09/13 15:01:06;;;;;;;;;4.75;4.00;;;;;26.37;45.20;101070.47;4880289;29;45452;-51
2021/09/13 15:03:31;;;;;;;;;5.00;4.00;;;;;26.37;45.36;101067.78;4878499;29;45237;-48
2021/09/13 15:05:57;;;;;;;;;7.25;4.25;;;;;26.36;44.73;101067.97;4880042;29;45317;-50
2021/09/13 15:08:22;;;;;;;;;9.75;7.50;;;;;26.35;44.75;101071.69;4881954;29;45322;-47
2021/09/13 15:10:48;;;;;;;;;5.00;4.00;;;;;26.32;44.68;101072.09;4879768;29;45262;-50
2021/09/13 15:13:13;;;;;;;;;4.75;4.25;;;;;26.30;44.65;101074.09;4882200;29;45614;-48
2021/09/13 15:15:39;;;;;;;;;4.75;3.75;;;;;26.27;44.73;101063.69;4879633;29;45574;-48
2021/09/13 15:18:05;;;;;;;;;5.00;4.50;;;;;26.24;44.56;101062.19;4886066;29;45403;-50
2021/09/13 15:20:31;;;;;;;;;5.75;4.00;;;;;26.24;44.34;101056.81;4883550;29;45554;-50
2021/09/13 15:22:57;;;;;;;;;6.00;6.00;;;;;26.24;44.18;101058.66;4878295;29;45428;-51
2021/09/13 15:25:23;;;;;;;;;5.00;5.00;;;;;26.25;44.49;101071.16;4899131;29;45457;-52
2021/09/13 15:27:48;;;;;;;;;3.50;3.50;;;;;26.25;44.30;101063.03;4902766;29;45482;-50
2021/09/13 15:30:16;;;;;;;;;6.50;6.00;;;;;26.28;44.10;101071.59;4886239;29;46809;-49
2021/09/13 15:32:42;;;;;;;;;4.00;4.00;;;;;26.28;44.24;101071.59;4903643;29;45239;-50
2021/09/13 15:35:08;;;;;;;;;5.50;4.00;;;;;26.29;44.07;101073.28;4903575;29;45389;-53